Voss, TX

8:27 PM CDT on July 31, 2015 (GMT -0500)
THE SKUNKVILLE RANCH | | Change Station
CLOSE
Current Station
Personal Weather Station
Location: COLEMAN, TX
Elevation: 1685 ft
Nearby Weather Stations

Elev 1685 ft 31.75 °N, 99.42 °W | Updated 1 minute ago

Clear
Clear
91.2 °F
Feels Like 99 °F
N
4.2
Wind Variable Wind from NE

Today
High -- | Low -- °F
--% Chance of Precip.
Yesterday
High -- | Low -- °F
Precip. -- in
6:53 AM 8:35 PM
Waxing Gibbous, 99% visible
Pressure 30.03 in
Visibility 10.0 miles
Clouds Clear
Heat Index 99 °F
Dew Point 72 °F
Humidity 54%
Rainfall 0.00 in
Snow Depth Not available.
UV 0 out of 12
Pollen 6.10 out of 12
Air Quality Not available.
Flu Activity Not available.
METAR KCOM 010115Z AUTO 08008KT 10SM CLR 34/19 A3003 RMK AO2 LTG DSNT E T03380185

More Conditions Fewer Conditions

Pressure 30.03 in
Visibility 10.0 miles
Clouds Clear
Heat Index 99 °F
Dew Point 72 °F
Humidity 54%
Rainfall 0.00 in
Snow Depth Not available.
UV 0 out of 12
Pollen 6.10 out of 12
Air Quality Not available.
Flu Activity Not available.
METAR KCOM 010115Z AUTO 08008KT 10SM CLR 34/19 A3003 RMK AO2 LTG DSNT E T03380185

More Conditions Fewer Conditions

10-Day Weather Forecast

×

Almanac

Astronomy

Jul. 31, 2015 Rise Set
Actual Time
Civil Twilight
Nautical Twilight
Astronomical Twilight
Moon
Length of Visible Light
Length of Day
Tomorrow will be .
, % of the Moon is Illuminated

Today's Extremes

State Highs State Lows

Community

WunderPhotos

Upload Photos

1,842,797 photos uploaded!

WunderBlogs® & News

Nearby

Air Quality

  Air Quality AQ Index Pollutant
Not available.

Snow Depth

Station Depth Elevation

Earthquake Activity

City Distance Mag. Time & Date
Minimum magnitude displayed is 2.5.

Coastal Water Temperatures

Place Temperature

Stations

Nearby Weather Stations

Station Location Temp. Windchill Dew Point Humidity Wind Precip. Elev Updated Type